Time;durP1;ratioP1;P1;durP2;ratioP2;P2;SDS_P1;SDS_P2;PMS_P1;PMS_P2;Temp;Humidity;BMP_temperature;BMP_pressure;BME280_temperature;BME280_humidity;BME280_pressure;Samples;Min_cycle;Max_cycle;Signal;HPM_P1;HPM_P2
2022/11/05 00:17:19;;;;;;;0.55;0.40;;;;;;;24.47;nan;99109.00;5110222;28;20570;-65
2022/11/05 00:19:45;;;;;;;0.50;0.40;;;;;;;24.48;nan;99116.16;5090237;28;20586;-64
2022/11/05 00:27:38;;;;;;;0.30;0.30;;;;;;;24.48;nan;99121.75;5110141;28;20518;-59
2022/11/05 00:30:05;;;;;;;0.55;0.40;;;;;;;24.47;nan;99123.75;5109711;28;20051;-59
2022/11/05 00:32:31;;;;;;;0.75;0.43;;;;;;;24.47;nan;99125.75;5109977;28;20098;-62
2022/11/05 00:34:57;;;;;;;0.40;0.40;;;;;;;24.47;nan;99117.38;5109598;28;20599;-60
2022/11/05 00:37:22;;;;;;;0.20;0.20;;;;;;;24.46;nan;99119.38;5108564;28;20032;-63
2022/11/05 00:39:48;;;;;;;0.40;0.30;;;;;;;24.48;nan;99124.56;5100152;28;20549;-60
2022/11/05 00:45:00;;;;;;;0.30;0.30;;;;;;;24.48;nan;99142.13;5109686;28;20063;-63
2022/11/05 00:50:10;;;;;;;0.45;0.32;;;;;;;24.48;nan;99149.72;5099335;28;20062;-63
2022/11/05 00:52:54;;;;;;;0.50;0.40;;;;;;;24.48;nan;99152.53;5095365;28;20131;-60
2022/11/05 00:55:41;;;;;;;0.50;0.40;;;;;;;24.45;nan;99151.34;5098091;28;20058;-60
2022/11/05 00:58:15;;;;;;;0.40;0.40;;;;;;;24.45;nan;99161.72;5089991;28;20074;-63
2022/11/05 01:00:49;;;;;;;0.38;0.30;;;;;;;24.48;nan;99166.50;5101717;28;20093;-60
2022/11/05 01:03:16;;;;;;;0.38;0.38;;;;;;;24.47;nan;99173.28;5106972;28;20139;-60
2022/11/05 01:05:44;;;;;;;0.47;0.30;;;;;;;24.46;nan;99171.72;5109414;28;20062;-60
2022/11/05 01:08:12;;;;;;;0.30;0.30;;;;;;;24.43;nan;99164.91;5109081;28;20043;-61
2022/11/05 01:10:46;;;;;;;0.50;0.40;;;;;;;24.47;nan;99171.28;5109459;28;20122;-64
2022/11/05 01:13:15;;;;;;;0.77;0.40;;;;;;;24.47;nan;99174.09;5112799;28;20050;-61
2022/11/05 01:15:41;;;;;;;0.40;0.38;;;;;;;24.48;nan;99175.69;5113115;28;20377;-63
2022/11/05 01:18:07;;;;;;;1.55;0.38;;;;;;;24.47;nan;99176.88;5111257;28;20588;-61
2022/11/05 01:20:32;;;;;;;0.60;0.47;;;;;;;24.47;nan;99174.09;5093579;28;20048;-61
2022/11/05 01:22:58;;;;;;;0.47;0.30;;;;;;;24.46;nan;99172.50;5098271;28;20587;-64
2022/11/05 01:25:24;;;;;;;0.55;0.40;;;;;;;24.47;nan;99160.13;5111159;28;20043;-64
2022/11/05 01:27:49;;;;;;;0.35;0.30;;;;;;;24.48;nan;99167.28;5100719;28;20040;-61
2022/11/05 01:30:15;;;;;;;0.95;0.52;;;;;;;24.47;nan;99176.88;5092319;28;20048;-61
2022/11/05 01:32:40;;;;;;;0.65;0.52;;;;;;;24.45;nan;99170.13;5110915;28;20043;-61
2022/11/05 01:35:08;;;;;;;0.50;0.50;;;;;;;24.48;nan;99166.50;5106938;28;20413;-64
2022/11/05 01:37:35;;;;;;;0.50;0.32;;;;;;;24.47;nan;99160.13;5099060;28;20495;-61
2022/11/05 01:40:02;;;;;;;0.65;0.50;;;;;;;24.48;nan;99170.09;5102215;28;20036;-64
2022/11/05 01:42:30;;;;;;;0.60;0.40;;;;;;;24.45;nan;99164.53;5101994;28;20040;-64
2022/11/05 01:44:59;;;;;;;0.70;0.40;;;;;;;24.48;nan;99166.50;5077572;28;20055;-61
2022/11/05 01:47:56;;;;;;;0.60;0.45;;;;;;;24.47;nan;99165.69;5096601;28;20180;-61
2022/11/05 01:50:37;;;;;;;0.63;0.40;;;;;;;24.47;nan;99164.91;5097250;28;20091;-63
2022/11/05 01:53:02;;;;;;;0.85;0.30;;;;;;;24.47;nan;99171.28;5089029;28;20050;-64
2022/11/05 01:55:32;;;;;;;0.53;0.40;;;;;;;24.44;nan;99155.34;5099915;28;20036;-60
2022/11/05 01:58:00;;;;;;;0.68;0.40;;;;;;;24.46;nan;99168.91;5107047;28;20289;-63
2022/11/05 02:00:26;;;;;;;0.77;0.43;;;;;;;24.46;nan;99168.91;5092130;28;21339;-63
2022/11/05 02:02:52;;;;;;;0.38;0.38;;;;;;;24.47;nan;99173.28;5091958;28;20044;-60
2022/11/05 02:05:18;;;;;;;0.65;0.40;;;;;;;24.47;nan;99164.91;5100780;28;20104;-61
2022/11/05 02:07:46;;;;;;;0.52;0.40;;;;;;;24.47;nan;99171.28;5108899;28;20467;-61
2022/11/05 02:10:14;;;;;;;0.90;0.60;;;;;;;24.45;nan;99179.31;5110486;28;20051;-61
2022/11/05 02:12:43;;;;;;;0.70;0.50;;;;;;;24.47;nan;99182.47;5085471;28;20075;-64
2022/11/05 02:15:14;;;;;;;0.80;0.52;;;;;;;24.47;nan;99178.88;5099673;28;20108;-63
2022/11/05 02:18:14;;;;;;;0.55;0.50;;;;;;;24.46;nan;99186.47;5097555;28;20048;-60
2022/11/05 02:20:48;;;;;;;0.57;0.50;;;;;;;24.47;nan;99185.28;5095058;28;20039;-63
2022/11/05 02:23:23;;;;;;;1.00;0.40;;;;;;;24.46;nan;99186.47;5110948;28;20704;-61
2022/11/05 02:26:33;;;;;;;1.30;0.65;;;;;;;24.45;nan;99190.47;5090715;28;20039;-61
2022/11/05 02:29:32;;;;;;;1.27;0.60;;;;;;;24.45;nan;99184.09;5067077;28;20044;-64
2022/11/05 02:32:27;;;;;;;0.52;0.47;;;;;;;24.45;nan;99198.06;5099470;28;20074;-63
2022/11/05 02:35:15;;;;;;;0.85;0.50;;;;;;;24.46;nan;99208.84;5091433;28;20051;-63
2022/11/05 02:37:51;;;;;;;1.02;0.60;;;;;;;24.45;nan;99200.88;5091329;28;20121;-61
2022/11/05 02:40:25;;;;;;;1.10;0.68;;;;;;;24.43;nan;99204.88;5100281;28;20200;-60
2022/11/05 02:43:17;;;;;;;1.00;0.60;;;;;;;24.46;nan;99205.25;5111351;28;20495;-60
2022/11/05 02:46:21;;;;;;;2.00;0.70;;;;;;;24.45;nan;99204.47;5106639;28;20043;-61
2022/11/05 02:48:47;;;;;;;1.25;0.73;;;;;;;24.46;nan;99208.06;5110942;28;20044;-60
2022/11/05 02:51:31;;;;;;;1.60;0.80;;;;;;;24.46;nan;99211.66;5111194;28;20456;-63
2022/11/05 02:54:11;;;;;;;1.40;0.80;;;;;;;24.45;nan;99215.66;5110784;28;20048;-61
2022/11/05 02:56:42;;;;;;;1.38;0.80;;;;;;;24.45;nan;99218.44;5098855;28;20511;-60
2022/11/05 02:59:07;;;;;;;1.35;0.90;;;;;;;24.44;nan;99222.44;5096731;28;20044;-62
2022/11/05 03:01:36;;;;;;;2.10;0.73;;;;;;;24.43;nan;99221.66;5095012;28;20047;-60
2022/11/05 03:04:05;;;;;;;1.33;0.70;;;;;;;24.44;nan;99228.03;5100715;28;20043;-63
2022/11/05 03:06:54;;;;;;;1.20;0.70;;;;;;;24.45;nan;99231.63;5110768;28;20492;-64
2022/11/05 03:09:59;;;;;;;1.60;0.70;;;;;;;24.45;nan;99237.22;5105214;28;20418;-64
2022/11/05 03:12:55;;;;;;;0.82;0.70;;;;;;;24.44;nan;99247.59;5090602;28;20090;-63
2022/11/05 03:15:39;;;;;;;1.27;0.80;;;;;;;24.44;nan;99253.19;5104710;28;20043;-60
2022/11/05 03:18:07;;;;;;;1.35;0.80;;;;;;;24.43;nan;99258.00;5103894;28;20062;-64
2022/11/05 03:20:51;;;;;;;1.10;0.57;;;;;;;24.41;nan;99252.00;5103236;28;20036;-63
2022/11/05 03:23:27;;;;;;;1.20;0.80;;;;;;;24.40;nan;99253.19;5090514;28;20075;-63
2022/11/05 03:26:05;;;;;;;0.90;0.70;;;;;;;24.43;nan;99259.97;5098790;28;20038;-63
2022/11/05 03:28:36;;;;;;;1.02;0.60;;;;;;;24.40;nan;99260.78;5095336;28;20083;-64
2022/11/05 03:31:04;;;;;;;1.75;0.80;;;;;;;24.43;nan;99260.78;5090741;28;20473;-63
2022/11/05 03:33:32;;;;;;;1.10;0.80;;;;;;;24.44;nan;99267.19;5103632;28;20066;-60
2022/11/05 03:36:04;;;;;;;1.63;0.70;;;;;;;24.43;nan;99271.16;5102206;28;20044;-60
2022/11/05 03:38:33;;;;;;;1.27;0.80;;;;;;;24.41;nan;99259.56;5107892;28;20097;-63
2022/11/05 03:41:06;;;;;;;0.98;0.65;;;;;;;24.41;nan;99257.56;5101790;28;20131;-60
2022/11/05 03:43:34;;;;;;;;;;;;;;;24.49;nan;99265.94;5089638;28;20103;-61
2022/11/05 03:46:05;;;;;;;1.13;0.60;;;;;;;24.46;nan;99275.94;5102766;28;19927;-65
2022/11/05 03:48:33;;;;;;;0.88;0.60;;;;;;;24.45;nan;99276.38;5090042;28;20040;-60
2022/11/05 03:51:11;;;;;;;1.45;0.88;;;;;;;24.41;nan;99279.16;5103368;28;20048;-60
2022/11/05 03:53:44;;;;;;;1.15;0.60;;;;;;;24.40;nan;99272.75;5109146;28;20047;-62
2022/11/05 03:56:21;;;;;;;1.23;0.70;;;;;;;24.42;nan;99278.75;5110396;28;20516;-64
2022/11/05 03:58:48;;;;;;;0.68;0.50;;;;;;;24.43;nan;99273.94;5093942;28;20058;-61
2022/11/05 04:01:13;;;;;;;1.10;0.70;;;;;;;24.43;nan;99283.16;5105396;28;20120;-64
2022/11/05 04:03:40;;;;;;;0.98;0.50;;;;;;;24.43;nan;99287.91;5104404;28;20512;-64
2022/11/05 04:14:29;;;;;;;0.50;0.40;;;;;;;24.42;nan;99295.50;5109860;28;20053;-63
2022/11/05 04:17:10;;;;;;;1.00;0.60;;;;;;;24.41;nan;99293.91;5110017;28;20047;-64
2022/11/05 04:25:09;;;;;;;0.85;0.40;;;;;;;24.42;nan;99301.09;5092239;28;20092;-61
2022/11/05 04:27:34;;;;;;;0.57;0.50;;;;;;;24.42;nan;99298.31;5101451;28;20032;-61
2022/11/05 04:30:18;;;;;;;1.13;0.60;;;;;;;24.40;nan;99297.13;5089604;28;20106;-64
2022/11/05 04:33:14;;;;;;;1.10;0.70;;;;;;;24.44;nan;99300.72;5096519;28;20126;-62
2022/11/05 04:35:41;;;;;;;0.73;0.55;;;;;;;24.43;nan;99302.72;5071983;28;20047;-64
2022/11/05 04:38:09;;;;;;;0.80;0.50;;;;;;;24.43;nan;99296.31;5089304;28;20051;-60
2022/11/05 04:40:35;;;;;;;0.77;0.50;;;;;;;24.43;nan;99304.69;5092926;28;20047;-60
2022/11/05 04:43:01;;;;;;;0.63;0.47;;;;;;;24.42;nan;99301.09;5092515;28;20044;-63
2022/11/05 04:45:29;;;;;;;0.75;0.55;;;;;;;24.43;nan;99299.09;5102121;28;20480;-60
2022/11/05 04:47:54;;;;;;;0.80;0.50;;;;;;;24.42;nan;99303.91;5101697;28;20042;-60
2022/11/05 04:50:20;;;;;;;0.65;0.50;;;;;;;24.41;nan;99304.31;5099652;28;20138;-60
2022/11/05 04:52:46;;;;;;;0.65;0.50;;;;;;;24.43;nan;99307.50;5103692;28;20403;-63
2022/11/05 04:55:11;;;;;;;0.40;0.30;;;;;;;24.44;nan;99311.91;5108136;28;20148;-64
2022/11/05 04:57:37;;;;;;;0.63;0.47;;;;;;;24.40;nan;99300.72;5073522;28;20123;-64
2022/11/05 05:00:04;;;;;;;0.75;0.50;;;;;;;24.41;nan;99301.50;5089273;28;20068;-64
2022/11/05 05:02:30;;;;;;;1.13;0.63;;;;;;;24.44;nan;99317.50;5091238;28;20054;-64
2022/11/05 05:04:56;;;;;;;0.50;0.45;;;;;;;24.42;nan;99320.69;5089362;28;20142;-61
2022/11/05 05:07:21;;;;;;;0.77;0.57;;;;;;;24.45;nan;99323.88;5090899;28;20515;-64
2022/11/05 05:09:46;;;;;;;0.30;0.30;;;;;;;24.45;nan;99323.88;5102346;28;20064;-61
2022/11/05 05:12:12;;;;;;;0.73;0.60;;;;;;;24.45;nan;99324.69;5101877;28;20471;-61
2022/11/05 05:14:37;;;;;;;0.50;0.43;;;;;;;24.42;nan;99326.28;5099199;28;20482;-64
2022/11/05 05:17:03;;;;;;;0.82;0.50;;;;;;;24.45;nan;99329.47;5093385;28;20048;-64
2022/11/05 05:19:28;;;;;;;0.93;0.50;;;;;;;24.44;nan;99323.09;5106556;28;20080;-64
2022/11/05 05:21:54;;;;;;;0.50;0.40;;;;;;;24.43;nan;99330.69;5095248;28;20464;-61
2022/11/05 05:24:20;;;;;;;0.55;0.47;;;;;;;24.43;nan;99333.47;5093251;28;20066;-64
2022/11/05 05:26:47;;;;;;;0.50;0.40;;;;;;;24.43;nan;99338.25;5098885;28;20084;-62
2022/11/05 05:29:13;;;;;;;0.43;0.40;;;;;;;24.43;nan;99341.03;5094390;28;20091;-60
2022/11/05 05:31:39;;;;;;;0.65;0.40;;;;;;;24.43;nan;99343.84;5095344;28;20089;-63
2022/11/05 05:34:05;;;;;;;0.38;0.35;;;;;;;24.44;nan;99351.06;5108701;28;20044;-60
2022/11/05 05:36:31;;;;;;;0.73;0.50;;;;;;;24.43;nan;99343.84;5108686;28;20043;-64
2022/11/05 05:38:57;;;;;;;0.70;0.50;;;;;;;24.43;nan;99355.84;5108854;28;20058;-60
2022/11/05 05:41:22;;;;;;;0.30;0.30;;;;;;;24.45;nan;99361.03;5089695;28;20119;-60
2022/11/05 05:43:48;;;;;;;0.52;0.40;;;;;;;24.44;nan;99351.06;5101635;28;20048;-60
2022/11/05 05:46:16;;;;;;;0.95;0.50;;;;;;;24.44;nan;99353.84;5093144;28;20484;-60
2022/11/05 05:48:42;;;;;;;0.57;0.40;;;;;;;24.43;nan;99355.84;5102050;28;20059;-64
2022/11/05 05:51:11;;;;;;;0.38;0.30;;;;;;;24.41;nan;99358.22;5088765;28;20040;-61
2022/11/05 05:53:37;;;;;;;0.60;0.45;;;;;;;24.42;nan;99354.22;5096193;28;20135;-61
2022/11/05 05:56:03;;;;;;;0.50;0.40;;;;;;;24.41;nan;99351.84;5104847;28;20055;-61
2022/11/05 05:58:34;;;;;;;0.30;0.30;;;;;;;24.42;nan;99359.81;5100367;28;20496;-61
2022/11/05 06:01:03;;;;;;;0.85;0.40;;;;;;;24.42;nan;99371.00;5091057;28;20110;-65
2022/11/05 06:03:28;;;;;;;0.73;0.57;;;;;;;24.43;nan;99374.59;5092288;28;20048;-61
2022/11/05 06:06:02;;;;;;;0.98;0.52;;;;;;;24.41;nan;99363.03;5091907;28;20056;-64
2022/11/05 06:08:30;;;;;;;0.50;0.32;;;;;;;24.43;nan;99369.00;5092005;28;20048;-63
2022/11/05 06:10:57;;;;;;;3.63;0.32;;;;;;;24.41;nan;99372.19;5092759;28;20056;-60
2022/11/05 06:13:22;;;;;;;0.60;0.40;;;;;;;24.42;nan;99371.00;5097615;28;20046;-60
2022/11/05 06:15:49;;;;;;;0.85;0.40;;;;;;;24.40;nan;99364.22;5108074;28;20415;-63
2022/11/05 06:18:15;;;;;;;0.50;0.30;;;;;;;24.41;nan;99380.59;5099006;28;20044;-62
2022/11/05 06:20:40;;;;;;;0.85;0.40;;;;;;;24.42;nan;99382.19;5076564;28;20048;-62
2022/11/05 06:23:06;;;;;;;0.38;0.30;;;;;;;24.43;nan;99382.97;5094701;28;20112;-61
2022/11/05 06:25:32;;;;;;;1.02;0.52;;;;;;;24.42;nan;99382.19;5099613;28;20168;-61
2022/11/05 06:27:57;;;;;;;0.30;0.30;;;;;;;24.42;nan;99387.78;5091577;28;20489;-64
2022/11/05 06:30:23;;;;;;;0.70;0.40;;;;;;;24.41;nan;99388.97;5091407;28;20052;-65
2022/11/05 06:32:48;;;;;;;0.45;0.30;;;;;;;24.42;nan;99387.78;5096224;28;20135;-61
2022/11/05 06:35:15;;;;;;;0.30;0.20;;;;;;;24.43;nan;99399.75;5096139;28;20047;-64
2022/11/05 06:37:41;;;;;;;0.40;0.40;;;;;;;24.41;nan;99397.38;5095074;28;20039;-61
2022/11/05 06:40:07;;;;;;;0.60;0.40;;;;;;;24.43;nan;99394.16;5099479;28;20065;-64
2022/11/05 06:42:32;;;;;;;0.40;0.30;;;;;;;24.41;nan;99388.19;5097269;28;20081;-61
2022/11/05 06:45:02;;;;;;;0.47;0.30;;;;;;;24.41;nan;99385.38;5098005;28;20043;-65
2022/11/05 06:47:27;;;;;;;0.65;0.40;;;;;;;24.41;nan;99390.97;5087258;28;20090;-62
2022/11/05 06:49:56;;;;;;;0.50;0.47;;;;;;;24.40;nan;99392.97;5093066;28;20084;-65
2022/11/05 06:52:21;;;;;;;0.65;0.50;;;;;;;24.40;nan;99401.38;5102523;28;20079;-61
2022/11/05 06:54:46;;;;;;;0.30;0.30;;;;;;;24.41;nan;99408.56;5111339;28;20067;-61
2022/11/05 06:57:12;;;;;;;0.70;0.50;;;;;;;24.41;nan;99410.53;5099100;28;20097;-62
2022/11/05 06:59:38;;;;;;;0.88;0.32;;;;;;;24.41;nan;99419.72;5107348;28;20051;-64
2022/11/05 07:02:04;;;;;;;0.30;0.30;;;;;;;24.42;nan;99412.13;5105133;28;20083;-64
2022/11/05 07:04:30;;;;;;;0.65;0.45;;;;;;;24.41;nan;99414.13;5110347;28;20066;-65
2022/11/05 07:06:57;;;;;;;0.40;0.30;;;;;;;24.41;nan;99416.94;5096568;28;20412;-62
2022/11/05 07:09:23;;;;;;;0.30;0.30;;;;;;;24.42;nan;99415.72;5090897;28;20121;-62
2022/11/05 07:11:49;;;;;;;0.88;0.50;;;;;;;24.41;nan;99414.13;5098709;28;20049;-65
2022/11/05 07:14:15;;;;;;;0.30;0.30;;;;;;;24.42;nan;99412.94;5099854;28;20426;-61
2022/11/05 07:16:40;;;;;;;0.47;0.20;;;;;;;24.42;nan;99415.72;5095066;28;20036;-61
2022/11/05 07:19:06;;;;;;;0.40;0.20;;;;;;;24.41;nan;99410.53;5079753;28;20131;-61
2022/11/05 07:21:31;;;;;;;0.50;0.30;;;;;;;24.40;nan;99409.75;5107243;28;20401;-61
2022/11/05 07:23:56;;;;;;;0.40;0.40;;;;;;;24.41;nan;99416.13;5102848;28;20123;-62
2022/11/05 07:26:22;;;;;;;0.32;0.30;;;;;;;24.42;nan;99412.94;5089556;28;20079;-62
2022/11/05 07:28:47;;;;;;;0.50;0.30;;;;;;;24.42;nan;99424.13;5110283;28;20457;-64
2022/11/05 07:31:13;;;;;;;0.25;0.25;;;;;;;24.41;nan;99422.53;5102078;28;20083;-63
2022/11/05 07:33:38;;;;;;;0.38;0.30;;;;;;;24.43;nan;99427.72;5098349;28;20044;-63
2022/11/05 07:36:04;;;;;;;0.73;0.50;;;;;;;24.43;nan;99424.91;5092917;28;20573;-60
2022/11/05 07:38:29;;;;;;;0.30;0.30;;;;;;;24.43;nan;99436.09;5097842;28;20609;-61
2022/11/05 07:40:54;;;;;;;0.57;0.30;;;;;;;24.44;nan;99434.94;5093305;28;20048;-61
2022/11/05 07:43:21;;;;;;;0.45;0.30;;;;;;;24.43;nan;99439.72;5092577;28;20040;-64
2022/11/05 07:45:46;;;;;;;0.35;0.35;;;;;;;24.44;nan;99434.94;5103551;28;20036;-63
2022/11/05 07:48:12;;;;;;;0.45;0.30;;;;;;;24.44;nan;99434.94;5090383;28;20373;-64
2022/11/05 07:50:37;;;;;;;0.65;0.45;;;;;;;24.41;nan;99436.50;5107799;28;20115;-64
2022/11/05 07:53:09;;;;;;;0.85;0.45;;;;;;;24.45;nan;99446.91;5110278;28;20519;-60
2022/11/05 07:55:35;;;;;;;0.85;0.40;;;;;;;24.45;nan;99446.91;5099851;28;20043;-61
2022/11/05 07:58:00;;;;;;;0.80;0.50;;;;;;;24.45;nan;99453.31;5104302;28;20035;-63
2022/11/05 08:00:27;;;;;;;0.80;0.45;;;;;;;24.43;nan;99448.13;5084240;28;20055;-64
2022/11/05 08:03:09;;;;;;;0.77;0.50;;;;;;;24.43;nan;99447.28;5102937;28;20043;-61
2022/11/05 08:05:37;;;;;;;0.45;0.32;;;;;;;24.44;nan;99448.91;5090185;28;20421;-61
2022/11/05 08:08:03;;;;;;;0.63;0.50;;;;;;;24.43;nan;99452.88;5096005;28;20046;-61
2022/11/05 08:10:29;;;;;;;0.32;0.30;;;;;;;24.45;nan;99453.31;5110256;28;20055;-60
2022/11/05 08:12:55;;;;;;;0.63;0.50;;;;;;;24.45;nan;99453.31;5102740;28;20048;-60
2022/11/05 08:15:21;;;;;;;0.40;0.30;;;;;;;24.46;nan;99456.91;5051934;28;20509;-62
2022/11/05 08:17:47;;;;;;;0.35;0.25;;;;;;;24.43;nan;99452.88;5049241;28;20531;-64
2022/11/05 08:20:13;;;;;;;0.40;0.30;;;;;;;24.44;nan;99451.72;5048956;28;20110;-61
2022/11/05 08:22:45;;;;;;;0.38;0.38;;;;;;;24.42;nan;99449.28;5067481;28;20409;-64
2022/11/05 08:25:11;;;;;;;0.70;0.47;;;;;;;24.44;nan;99457.31;5058990;28;20050;-64
2022/11/05 08:27:38;;;;;;;0.55;0.50;;;;;;;24.46;nan;99463.28;5067973;28;20572;-61
2022/11/05 08:30:05;;;;;;;0.52;0.45;;;;;;;24.46;nan;99462.50;5067123;28;20048;-61
2022/11/05 08:32:31;;;;;;;0.30;0.30;;;;;;;24.47;nan;99467.66;5061448;28;20378;-64
2022/11/05 08:34:56;;;;;;;0.55;0.40;;;;;;;24.46;nan;99463.28;5054643;28;20051;-63
2022/11/05 08:37:22;;;;;;;0.43;0.30;;;;;;;24.46;nan;99470.88;5049479;28;20099;-61
2022/11/05 08:39:47;;;;;;;0.35;0.35;;;;;;;24.46;nan;99470.88;5049073;28;20033;-64
2022/11/05 08:42:12;;;;;;;0.30;0.30;;;;;;;24.44;nan;99465.69;5049303;28;20536;-64
2022/11/05 08:44:38;;;;;;;0.40;0.40;;;;;;;24.43;nan;99459.28;5063031;28;20059;-64
2022/11/05 08:47:03;;;;;;;0.60;0.40;;;;;;;24.47;nan;99466.88;5061552;28;20102;-61
2022/11/05 08:49:28;;;;;;;0.45;0.30;;;;;;;24.47;nan;99478.06;5048097;28;20063;-64
2022/11/05 08:51:54;;;;;;;0.60;0.45;;;;;;;24.46;nan;99477.25;5048927;28;20037;-60
2022/11/05 08:54:23;;;;;;;0.75;0.40;;;;;;;24.47;nan;99478.06;5065445;28;20041;-60
2022/11/05 08:56:48;;;;;;;0.68;0.40;;;;;;;24.46;nan;99474.47;5068723;28;20036;-63
2022/11/05 08:59:14;;;;;;;0.40;0.30;;;;;;;24.47;nan;99473.25;5068504;28;20103;-60
2022/11/05 09:01:39;;;;;;;0.43;0.30;;;;;;;24.48;nan;99476.84;5041258;28;20084;-60
2022/11/05 09:04:05;;;;;;;0.52;0.40;;;;;;;24.47;nan;99473.25;5048755;28;20045;-61
2022/11/05 09:06:31;;;;;;;0.30;0.20;;;;;;;24.47;nan;99472.47;5048669;28;20094;-63
2022/11/05 09:08:57;;;;;;;0.73;0.50;;;;;;;24.48;nan;99468.47;5048981;28;20541;-61
2022/11/05 09:11:22;;;;;;;0.50;0.40;;;;;;;24.46;nan;99466.06;5048913;28;20048;-60
2022/11/05 09:13:48;;;;;;;0.45;0.40;;;;;;;24.47;nan;99464.06;5067824;28;20443;-60
2022/11/05 09:16:22;;;;;;;0.40;0.40;;;;;;;24.47;nan;99466.88;5068278;28;20041;-63
2022/11/05 09:18:49;;;;;;;0.30;0.30;;;;;;;24.46;nan;99463.28;5053726;28;20509;-63
2022/11/05 09:21:16;;;;;;;0.38;0.38;;;;;;;24.46;nan;99457.69;5068326;28;20048;-63
2022/11/05 09:23:42;;;;;;;0.50;0.50;;;;;;;24.47;nan;99466.88;5067921;28;20555;-60
2022/11/05 09:26:09;;;;;;;0.57;0.40;;;;;;;24.46;nan;99463.28;5055811;28;20141;-64
2022/11/05 09:28:34;;;;;;;0.50;0.40;;;;;;;24.45;nan;99456.09;5049665;28;20119;-61
2022/11/05 09:31:08;;;;;;;0.60;0.30;;;;;;;24.47;nan;99459.28;5061852;28;20083;-64
2022/11/05 09:33:35;;;;;;;0.57;0.43;;;;;;;24.47;nan;99452.91;5048723;28;20116;-61
2022/11/05 09:36:00;;;;;;;0.20;0.20;;;;;;;24.47;nan;99450.09;5058293;28;20051;-61
2022/11/05 09:38:26;;;;;;;0.88;0.45;;;;;;;24.47;nan;99450.91;5053409;28;20037;-61
2022/11/05 09:40:57;;;;;;;0.57;0.40;;;;;;;24.47;nan;99461.28;5064507;28;20344;-61
2022/11/05 09:43:29;;;;;;;0.50;0.30;;;;;;;24.46;nan;99460.50;5067532;28;20040;-64
2022/11/05 09:45:58;;;;;;;0.52;0.40;;;;;;;24.47;nan;99456.50;5067525;28;20558;-60
2022/11/05 09:48:29;;;;;;;0.45;0.40;;;;;;;24.47;nan;99461.28;5054009;28;20471;-63
2022/11/05 09:50:54;;;;;;;0.43;0.40;;;;;;;24.46;nan;99460.50;5071829;28;20071;-60
2022/11/05 09:53:22;;;;;;;0.55;0.40;;;;;;;24.46;nan;99457.69;5071643;28;20068;-60
2022/11/05 09:55:52;;;;;;;0.38;0.30;;;;;;;24.45;nan;99470.06;5060726;28;20040;-63
2022/11/05 09:58:35;;;;;;;0.40;0.30;;;;;;;24.44;nan;99462.88;5060395;28;20075;-64
2022/11/05 10:01:01;;;;;;;;;;;;;;;24.50;nan;99471.66;5052271;28;20110;-61
2022/11/05 10:03:29;;;;;;;0.40;0.40;;;;;;;24.46;nan;99474.47;5055218;28;19917;-64
2022/11/05 10:06:04;;;;;;;0.40;0.30;;;;;;;24.45;nan;99475.66;5057718;28;20048;-61
2022/11/05 10:08:37;;;;;;;0.68;0.40;;;;;;;24.41;nan;99466.47;5051371;28;20064;-61
2022/11/05 10:11:07;;;;;;;0.30;0.30;;;;;;;24.40;nan;99470.47;5049646;28;20055;-61
2022/11/05 10:13:42;;;;;;;0.75;0.30;;;;;;;24.41;nan;99474.84;5060449;28;20169;-63
2022/11/05 10:16:40;;;;;;;0.22;0.20;;;;;;;24.40;nan;99473.25;5055267;28;20040;-60
2022/11/05 10:19:08;;;;;;;0.25;0.22;;;;;;;24.39;nan;99471.66;5035759;28;20107;-63
2022/11/05 10:21:36;;;;;;;0.30;0.30;;;;;;;24.38;nan;99468.06;5051257;28;20053;-60
2022/11/05 10:24:10;;;;;;;0.20;0.20;;;;;;;24.37;nan;99463.69;5057929;28;20099;-61
2022/11/05 10:26:37;;;;;;;0.30;0.28;;;;;;;24.39;nan;99466.88;5057596;28;20044;-64
2022/11/05 10:29:02;;;;;;;0.20;0.20;;;;;;;24.38;nan;99465.28;5066720;28;20051;-60
2022/11/05 10:31:33;;;;;;;0.20;0.20;;;;;;;24.39;nan;99460.47;5055647;28;20048;-61
2022/11/05 10:34:02;;;;;;;0.28;0.28;;;;;;;24.38;nan;99468.06;5066024;28;20035;-61
2022/11/05 10:36:30;;;;;;;0.55;0.38;;;;;;;24.39;nan;99466.06;5054514;28;20041;-63
2022/11/05 10:39:01;;;;;;;0.30;0.30;;;;;;;24.37;nan;99471.28;5056693;28;20062;-64
2022/11/05 10:41:29;;;;;;;0.25;0.25;;;;;;;24.39;nan;99466.06;5067981;28;20119;-61
2022/11/05 10:44:02;;;;;;;0.20;0.20;;;;;;;24.36;nan;99467.69;5066987;28;20073;-61
2022/11/05 10:46:31;;;;;;;0.43;0.35;;;;;;;24.37;nan;99465.69;5052368;28;20469;-61
2022/11/05 10:49:09;;;;;;;0.22;0.22;;;;;;;24.36;nan;99467.69;5056384;28;20048;-61
2022/11/05 10:51:36;;;;;;;0.22;0.20;;;;;;;24.37;nan;99460.09;5053575;28;20464;-64
2022/11/05 10:54:13;;;;;;;0.88;0.40;;;;;;;24.33;nan;99457.28;5056658;28;20037;-63
2022/11/05 10:56:40;;;;;;;0.47;0.30;;;;;;;24.34;nan;99458.06;5058573;28;20045;-64
2022/11/05 10:59:28;;;;;;;0.20;0.20;;;;;;;24.35;nan;99456.88;5058273;28;20477;-61
2022/11/05 11:02:19;;;;;;;0.43;0.30;;;;;;;24.33;nan;99450.88;5060586;28;20106;-63
2022/11/05 11:04:50;;;;;;;0.40;0.30;;;;;;;24.35;nan;99463.25;5065778;28;20045;-64
2022/11/05 11:07:22;;;;;;;0.35;0.30;;;;;;;24.34;nan;99461.66;5068806;28;20048;-60
2022/11/05 11:09:49;;;;;;;0.10;0.10;;;;;;;24.34;nan;99452.47;5058431;28;20566;-64
2022/11/05 11:12:32;;;;;;;0.45;0.40;;;;;;;24.29;nan;99445.28;5070429;28;20057;-64
2022/11/05 11:15:04;;;;;;;0.63;0.40;;;;;;;24.33;nan;99450.88;5068687;28;20052;-60
2022/11/05 11:17:31;;;;;;;0.32;0.30;;;;;;;24.33;nan;99456.47;5070480;28;20118;-60
2022/11/05 11:20:15;;;;;;;0.32;0.30;;;;;;;24.32;nan;99452.06;5070279;28;20045;-63
2022/11/05 11:22:40;;;;;;;0.30;0.20;;;;;;;24.32;nan;99449.25;5070288;28;20109;-63
2022/11/05 11:25:24;;;;;;;0.30;0.22;;;;;;;24.32;nan;99435.28;5060744;28;20432;-60
2022/11/05 11:27:50;;;;;;;0.40;0.30;;;;;;;24.33;nan;99442.50;5057362;28;20041;-63
2022/11/05 11:30:18;;;;;;;0.32;0.30;;;;;;;24.30;nan;99440.47;5057864;28;20128;-60
2022/11/05 11:32:49;;;;;;;0.20;0.20;;;;;;;24.30;nan;99443.28;5063937;28;20080;-60
2022/11/05 11:35:21;;;;;;;0.45;0.30;;;;;;;24.29;nan;99428.50;5064635;28;20079;-63
2022/11/05 11:37:51;;;;;;;0.28;0.28;;;;;;;24.31;nan;99430.91;5057021;28;20045;-64
2022/11/05 11:40:22;;;;;;;0.47;0.40;;;;;;;24.31;nan;99437.28;5055323;28;20559;-61
2022/11/05 11:42:54;;;;;;;0.30;0.30;;;;;;;24.31;nan;99434.50;5054993;28;20053;-64
2022/11/05 11:45:43;;;;;;;0.30;0.30;;;;;;;24.32;nan;99429.69;5049839;28;20045;-61
2022/11/05 11:48:17;;;;;;;0.30;0.30;;;;;;;24.35;nan;99426.13;5044781;28;20420;-61
2022/11/05 11:50:44;;;;;;;0.40;0.30;;;;;;;24.37;nan;99429.34;5061098;28;20527;-64
2022/11/05 11:53:19;;;;;;;0.50;0.30;;;;;;;24.37;nan;99432.13;5057418;28;20084;-64
2022/11/05 11:55:54;;;;;;;0.45;0.30;;;;;;;24.39;nan;99432.53;5049067;28;20048;-63
2022/11/05 11:58:20;;;;;;;0.30;0.30;;;;;;;24.39;nan;99426.94;5060328;28;20048;-60
2022/11/05 12:00:54;;;;;;;0.45;0.35;;;;;;;24.38;nan;99431.72;5065120;28;20044;-61
2022/11/05 12:03:27;;;;;;;0.20;0.20;;;;;;;24.38;nan;99431.72;5055172;28;20048;-65
2022/11/05 12:06:23;;;;;;;0.30;0.30;;;;;;;24.38;nan;99426.13;5060137;28;20049;-61
2022/11/05 12:09:03;;;;;;;0.40;0.40;;;;;;;24.38;nan;99428.13;5049537;28;20497;-61
2022/11/05 12:11:40;;;;;;;0.50;0.40;;;;;;;24.36;nan;99420.16;5050367;28;20072;-63
2022/11/05 12:14:43;;;;;;;0.47;0.30;;;;;;;24.35;nan;99426.13;5061587;28;20051;-61
2022/11/05 12:17:29;;;;;;;0.28;0.28;;;;;;;24.35;nan;99423.31;5056508;28;20080;-64
2022/11/05 12:20:10;;;;;;;0.50;0.40;;;;;;;24.33;nan;99425.72;5062224;28;20063;-61
2022/11/05 12:23:17;;;;;;;0.30;0.30;;;;;;;24.31;nan;99426.09;5069692;28;20044;-64
2022/11/05 12:26:18;;;;;;;0.43;0.32;;;;;;;24.32;nan;99424.09;4976042;28;20041;-63
2022/11/05 12:29:22;;;;;;;0.30;0.30;;;;;;;24.32;nan;99416.50;4987590;28;20422;-64
2022/11/05 12:32:05;;;;;;;0.20;0.20;;;;;;;24.33;nan;99422.94;4975549;28;20053;-63
2022/11/05 12:34:40;;;;;;;0.40;0.30;;;;;;;24.34;nan;99424.53;4987347;28;20538;-64
2022/11/05 12:37:19;;;;;;;0.25;0.20;;;;;;;24.33;nan;99420.13;4994444;28;20066;-61
2022/11/05 12:39:56;;;;;;;0.43;0.40;;;;;;;24.33;nan;99408.97;4996831;28;20042;-61
2022/11/05 12:42:39;;;;;;;0.25;0.25;;;;;;;24.33;nan;99414.53;4992471;28;20100;-64
2022/11/05 12:45:44;;;;;;;1.77;0.50;;;;;;;24.32;nan;99415.72;4986397;28;20499;-64
2022/11/05 12:48:18;;;;;;;0.50;0.35;;;;;;;24.32;nan;99407.34;4973413;28;20089;-61
2022/11/05 12:51:08;;;;;;;0.30;0.30;;;;;;;24.32;nan;99401.75;4980872;28;20073;-61